createdAt,value
2022-08-19T00:01:42.558Z,9.23
2022-08-19T00:04:12.686Z,10.18
2022-08-19T00:06:44.876Z,7.63
2022-08-19T00:09:15.734Z,7.22
2022-08-19T00:11:44.684Z,7.40
2022-08-19T00:14:14.743Z,12.80
2022-08-19T00:16:44.166Z,9.60
2022-08-19T00:19:12.795Z,10.70
2022-08-19T00:21:42.725Z,6.55
2022-08-19T00:24:11.735Z,12.43
2022-08-19T00:26:40.587Z,10.95
2022-08-19T00:29:10.057Z,12.07
2022-08-19T00:31:39.065Z,11.52
2022-08-19T00:34:07.552Z,11.07
2022-08-19T00:36:36.152Z,10.35
2022-08-19T00:39:06.955Z,12.13
2022-08-19T00:41:35.443Z,10.52
2022-08-19T00:44:05.299Z,8.75
2022-08-19T00:46:34.713Z,11.52
2022-08-19T00:49:06.331Z,10.98
2022-08-19T00:51:35.536Z,11.18
2022-08-19T00:54:05.102Z,8.82
2022-08-19T00:56:35.497Z,10.65
2022-08-19T00:59:04.688Z,13.65
2022-08-19T01:01:33.337Z,14.32
2022-08-19T01:04:01.889Z,11.15
2022-08-19T01:06:33.331Z,15.02
2022-08-19T01:09:02.477Z,11.52
2022-08-19T01:11:31.359Z,11.65
2022-08-19T01:14:01.749Z,13.18
2022-08-19T01:16:31.247Z,12.27
2022-08-19T01:18:59.714Z,14.00
2022-08-19T01:21:30.340Z,11.02
2022-08-19T01:24:00.433Z,10.65
2022-08-19T01:26:31.197Z,13.00
2022-08-19T01:29:02.070Z,9.77
2022-08-19T01:31:33.563Z,10.63
2022-08-19T01:34:02.747Z,18.13
2022-08-19T01:36:36.591Z,12.90
2022-08-19T01:39:08.107Z,11.85
2022-08-19T01:41:36.875Z,13.05
2022-08-19T01:44:17.433Z,10.90
2022-08-19T01:46:48.265Z,18.63
2022-08-19T01:49:17.693Z,11.65
2022-08-19T01:51:46.224Z,15.20
2022-08-19T01:54:26.973Z,11.25
2022-08-19T01:56:57.780Z,12.15
2022-08-19T01:59:27.183Z,14.75
2022-08-19T02:01:56.077Z,14.18
2022-08-19T02:04:26.454Z,11.25
2022-08-19T02:06:55.140Z,10.75
2022-08-19T02:09:25.057Z,13.13
2022-08-19T02:11:54.382Z,13.18
2022-08-19T02:14:22.876Z,12.63
2022-08-19T02:16:51.371Z,12.85
2022-08-19T02:19:19.859Z,12.15
2022-08-19T02:21:48.476Z,11.02
2022-08-19T02:24:16.991Z,13.70
2022-08-19T02:26:46.883Z,11.40
2022-08-19T02:29:15.403Z,10.07
2022-08-19T02:31:43.869Z,11.65
2022-08-19T02:34:12.363Z,13.55
2022-08-19T02:36:42.532Z,7.47
2022-08-19T02:39:10.237Z,7.78
2022-08-19T02:41:38.898Z,11.80
2022-08-19T02:44:29.749Z,10.52
2022-08-19T02:46:57.267Z,10.75
2022-08-19T02:49:25.803Z,6.13
2022-08-19T02:51:55.355Z,6.75
2022-08-19T02:54:23.859Z,9.02
2022-08-19T02:56:52.487Z,15.52
2022-08-19T02:59:23.152Z,13.73
2022-08-19T03:01:51.765Z,10.05
2022-08-19T03:04:20.783Z,7.03
2022-08-19T03:06:50.826Z,9.20
2022-08-19T03:09:20.596Z,7.78
2022-08-19T03:11:49.886Z,7.38
2022-08-19T03:14:22.671Z,8.73
2022-08-19T03:16:52.302Z,13.13
2022-08-19T03:19:22.228Z,7.97
2022-08-19T03:21:51.252Z,11.00
2022-08-19T03:24:20.241Z,9.90
2022-08-19T03:26:50.854Z,13.18
2022-08-19T03:29:30.352Z,10.15
2022-08-19T03:32:01.847Z,8.27
2022-08-19T03:34:31.559Z,6.38
2022-08-19T03:37:01.242Z,10.40
2022-08-19T03:39:29.752Z,17.10
2022-08-19T03:42:32.205Z,8.23
2022-08-19T03:44:49.553Z,8.25
2022-08-19T03:47:19.439Z,9.30
2022-08-19T03:49:48.164Z,7.68
2022-08-19T03:52:16.681Z,9.63
2022-08-19T03:54:45.997Z,7.55
2022-08-19T03:57:14.459Z,10.07
2022-08-19T03:59:42.958Z,8.32
2022-08-19T04:02:12.667Z,7.25
2022-08-19T04:04:44.267Z,4.57
2022-08-19T04:07:16.724Z,7.57
2022-08-19T04:09:45.282Z,7.65
2022-08-19T04:12:13.779Z,10.02
2022-08-19T04:14:42.357Z,4.78
2022-08-19T04:17:10.997Z,6.82
2022-08-19T04:19:39.636Z,9.43
2022-08-19T04:22:09.694Z,7.15
2022-08-19T04:24:38.560Z,9.25
2022-08-19T04:27:07.579Z,9.38
2022-08-19T04:29:36.309Z,6.63
2022-08-19T04:32:09.112Z,8.60
2022-08-19T04:35:01.154Z,4.35
2022-08-19T04:37:29.519Z,3.67
2022-08-19T04:40:21.436Z,4.03
2022-08-19T04:42:49.970Z,5.35
2022-08-19T04:45:18.522Z,4.20
2022-08-19T04:47:57.795Z,4.03
2022-08-19T04:50:27.541Z,6.05
2022-08-19T04:52:57.712Z,2.15
2022-08-19T04:55:27.847Z,8.88
2022-08-19T04:57:56.459Z,5.43
2022-08-19T05:00:25.027Z,8.02
2022-08-19T05:02:53.869Z,3.88
2022-08-19T05:05:22.546Z,6.43
2022-08-19T05:07:51.031Z,7.07
2022-08-19T05:10:21.570Z,4.35
2022-08-19T05:12:50.090Z,5.85
2022-08-19T05:15:19.858Z,5.93
2022-08-19T05:18:02.231Z,7.47
2022-08-19T05:20:48.377Z,6.10
2022-08-19T05:23:22.840Z,5.50
2022-08-19T05:25:53.831Z,5.57
2022-08-19T05:28:22.758Z,7.45
2022-08-19T05:30:51.782Z,11.13
2022-08-19T05:33:20.748Z,13.52
2022-08-19T05:35:50.350Z,13.35
2022-08-19T05:38:19.097Z,7.20
2022-08-19T05:40:49.182Z,9.70
2022-08-19T05:43:19.263Z,9.32
2022-08-19T05:45:48.393Z,9.15
2022-08-19T05:48:18.439Z,8.68
2022-08-19T05:50:47.804Z,11.15
2022-08-19T05:53:17.318Z,9.77
2022-08-19T05:55:45.885Z,10.50
2022-08-19T05:58:14.757Z,10.05
2022-08-19T06:00:46.002Z,7.53
2022-08-19T06:03:14.468Z,4.95
2022-08-19T06:05:49.571Z,5.13
2022-08-19T06:08:33.457Z,5.85
2022-08-19T06:11:14.831Z,8.10
2022-08-19T06:13:43.578Z,4.32
2022-08-19T06:16:13.536Z,5.05
2022-08-19T06:18:42.088Z,5.07
2022-08-19T06:21:10.564Z,7.03
2022-08-19T06:23:39.633Z,7.03
2022-08-19T06:26:09.008Z,8.48
2022-08-19T06:28:37.494Z,6.50
2022-08-19T06:31:08.980Z,8.75
2022-08-19T06:33:40.603Z,5.82
2022-08-19T06:36:10.274Z,3.90
2022-08-19T06:38:38.750Z,4.07
2022-08-19T06:41:08.186Z,5.40
2022-08-19T06:43:42.152Z,4.78
2022-08-19T06:46:15.367Z,5.55
2022-08-19T06:48:45.971Z,4.22
2022-08-19T06:51:19.191Z,5.68
2022-08-19T06:56:18.266Z,4.63
2022-08-19T06:58:47.662Z,3.90
2022-08-19T07:01:16.413Z,7.68
2022-08-19T07:03:47.403Z,3.17
2022-08-19T07:06:43.572Z,8.57
2022-08-19T07:09:10.088Z,5.00
2022-08-19T07:11:38.878Z,8.98
2022-08-19T07:14:19.314Z,4.43
2022-08-19T07:16:48.894Z,6.35
2022-08-19T07:19:19.308Z,6.63
2022-08-19T07:21:48.889Z,3.22
2022-08-19T07:24:18.057Z,7.45
2022-08-19T07:26:46.792Z,6.38
2022-08-19T07:29:22.998Z,5.47
2022-08-19T07:31:56.908Z,6.40
2022-08-19T07:34:28.634Z,5.47
2022-08-19T07:36:57.466Z,6.78
2022-08-19T07:39:31.407Z,7.13
2022-08-19T07:42:01.631Z,8.23
2022-08-19T07:44:30.475Z,6.60
2022-08-19T07:47:00.929Z,8.77
2022-08-19T07:49:31.293Z,4.15
2022-08-19T07:52:02.326Z,5.35
2022-08-19T07:54:32.469Z,3.47
2022-08-19T07:57:04.284Z,3.63
2022-08-19T07:59:32.850Z,14.60
2022-08-19T08:02:01.603Z,4.75
2022-08-19T08:04:50.349Z,8.00
2022-08-19T08:07:33.166Z,3.33
2022-08-19T08:10:03.094Z,4.88
2022-08-19T08:12:35.169Z,5.85
2022-08-19T08:15:08.449Z,2.83
2022-08-19T08:17:49.821Z,7.75
2022-08-19T08:20:22.056Z,3.65
2022-08-19T08:23:08.550Z,2.33
2022-08-19T08:25:39.011Z,4.30
2022-08-19T08:28:11.437Z,6.10
2022-08-19T08:30:48.958Z,5.05
2022-08-19T08:33:32.811Z,4.22
2022-08-19T08:36:03.993Z,4.75
2022-08-19T08:38:38.834Z,2.22
2022-08-19T08:41:20.424Z,3.47
2022-08-19T08:43:52.129Z,3.83
2022-08-19T08:46:31.472Z,4.95
2022-08-19T08:49:09.764Z,6.07
2022-08-19T08:54:26.923Z,4.50
2022-08-19T08:57:03.837Z,3.63
2022-08-19T08:59:37.381Z,3.53
2022-08-19T09:02:06.081Z,7.78
2022-08-19T09:04:37.946Z,3.17
2022-08-19T09:07:36.446Z,2.97
2022-08-19T09:10:12.238Z,5.70
2022-08-19T09:12:47.734Z,5.82
2022-08-19T09:15:18.503Z,7.72
2022-08-19T09:17:50.102Z,4.57
2022-08-19T09:20:22.905Z,3.55
2022-08-19T09:22:52.825Z,3.25
2022-08-19T09:25:26.669Z,6.20
2022-08-19T09:28:05.514Z,5.15
2022-08-19T09:30:36.859Z,3.70
2022-08-19T09:33:05.615Z,4.82
2022-08-19T09:35:49.866Z,4.63
2022-08-19T09:38:24.273Z,6.20
2022-08-19T09:40:52.540Z,5.40
2022-08-19T09:43:33.169Z,5.18
2022-08-19T09:46:02.675Z,5.07
2022-08-19T09:48:31.035Z,6.40
2022-08-19T09:51:05.595Z,5.70
2022-08-19T09:53:35.870Z,2.83
2022-08-19T09:56:06.611Z,4.05
2022-08-19T09:58:37.124Z,3.17
2022-08-19T10:01:07.010Z,3.47
2022-08-19T10:03:39.761Z,5.75
2022-08-19T10:06:14.731Z,4.80
2022-08-19T10:08:50.455Z,7.07
2022-08-19T10:11:27.337Z,3.83
2022-08-19T10:13:57.557Z,2.60
2022-08-19T10:16:30.490Z,5.30
2022-08-19T10:19:03.651Z,3.28
2022-08-19T10:21:37.519Z,4.05
2022-08-19T10:24:10.395Z,9.20
2022-08-19T10:26:46.198Z,2.47
2022-08-19T10:29:33.001Z,3.53
2022-08-19T10:32:02.997Z,6.20
2022-08-19T10:34:32.603Z,5.00
2022-08-19T10:37:02.547Z,3.47
2022-08-19T10:39:41.130Z,5.38
2022-08-19T10:42:14.011Z,4.35
2022-08-19T10:44:44.805Z,5.72
2022-08-19T10:47:17.504Z,5.63
2022-08-19T10:50:11.958Z,5.97
2022-08-19T10:52:49.561Z,7.93
2022-08-19T10:55:38.789Z,6.03
2022-08-19T10:58:13.302Z,12.27
2022-08-19T11:00:43.294Z,7.70
2022-08-19T11:03:11.812Z,10.48
2022-08-19T11:05:42.983Z,7.43
2022-08-19T11:08:22.285Z,8.27
2022-08-19T11:11:02.141Z,5.43
2022-08-19T11:13:31.081Z,7.88
2022-08-19T11:16:07.743Z,8.73
2022-08-19T11:18:38.612Z,4.78
2022-08-19T11:21:12.404Z,3.97
2022-08-19T11:23:41.499Z,5.32
2022-08-19T11:26:11.597Z,10.23
2022-08-19T11:28:40.315Z,6.50
2022-08-19T11:31:13.115Z,7.50
2022-08-19T11:33:41.440Z,10.45
2022-08-19T11:36:10.679Z,5.57
2022-08-19T11:38:43.551Z,6.50
2022-08-19T11:41:13.223Z,4.65
2022-08-19T11:43:41.501Z,8.20
2022-08-19T11:46:12.819Z,8.50
2022-08-19T11:48:42.124Z,4.53
2022-08-19T11:51:13.989Z,2.92
2022-08-19T11:53:42.238Z,3.65
2022-08-19T11:56:12.681Z,6.28
2022-08-19T11:58:42.877Z,5.82
2022-08-19T12:01:12.819Z,4.93
2022-08-19T12:03:41.792Z,3.17
2022-08-19T12:06:12.974Z,4.50
2022-08-19T12:08:42.289Z,3.10
2022-08-19T12:11:10.984Z,4.10
2022-08-19T12:13:40.947Z,4.80
2022-08-19T12:16:10.715Z,6.05
2022-08-19T12:18:39.427Z,3.40
2022-08-19T12:21:07.859Z,5.63
2022-08-19T12:23:38.483Z,8.18
2022-08-19T12:26:06.995Z,4.00
2022-08-19T12:28:35.379Z,3.10
2022-08-19T12:31:05.335Z,4.75
2022-08-19T12:33:34.103Z,4.25
2022-08-19T12:36:05.500Z,4.35
2022-08-19T12:38:35.264Z,5.80
2022-08-19T12:41:07.515Z,4.72
2022-08-19T12:43:36.081Z,10.38
2022-08-19T12:46:06.223Z,4.95
2022-08-19T12:48:35.174Z,4.82
2022-08-19T12:51:08.785Z,7.40
2022-08-19T12:53:39.243Z,5.32
2022-08-19T12:56:11.535Z,5.28
2022-08-19T12:58:48.818Z,4.53
2022-08-19T13:01:22.694Z,3.45
2022-08-19T13:03:53.223Z,6.03
2022-08-19T13:06:22.366Z,5.13
2022-08-19T13:08:50.728Z,7.18
2022-08-19T13:11:25.365Z,6.15
2022-08-19T13:13:56.284Z,6.20
2022-08-19T13:16:28.573Z,10.48
2022-08-19T13:18:57.947Z,7.97
2022-08-19T13:21:30.943Z,5.75
2022-08-19T13:23:59.903Z,5.75
2022-08-19T13:26:28.100Z,4.13
2022-08-19T13:29:13.997Z,7.03
2022-08-19T13:32:02.040Z,3.15
2022-08-19T13:34:34.942Z,4.75
2022-08-19T13:37:05.464Z,8.60
2022-08-19T13:39:33.989Z,4.63
2022-08-19T13:42:03.116Z,6.88
2022-08-19T13:44:31.809Z,4.05
2022-08-19T13:47:06.741Z,6.40
2022-08-19T13:49:36.988Z,5.35
2022-08-19T13:52:06.453Z,4.88
2022-08-19T13:54:34.791Z,5.22
2022-08-19T13:57:03.050Z,8.20
2022-08-19T13:59:31.455Z,8.25
2022-08-19T14:02:00.955Z,9.25
2022-08-19T14:04:32.268Z,5.78
2022-08-19T14:07:00.566Z,6.85
2022-08-19T14:09:28.939Z,5.45
2022-08-19T14:11:57.251Z,3.80
2022-08-19T14:14:29.003Z,2.60
2022-08-19T14:16:57.296Z,2.88
2022-08-19T14:19:25.552Z,3.15
2022-08-19T14:22:00.097Z,4.93
2022-08-19T14:24:28.603Z,5.55
2022-08-19T14:26:57.449Z,5.75
2022-08-19T14:29:25.945Z,1.83
2022-08-19T14:31:54.185Z,3.90
2022-08-19T14:34:23.203Z,5.78
2022-08-19T14:36:51.523Z,7.28
2022-08-19T14:39:21.504Z,2.85
2022-08-19T14:41:49.889Z,4.80
2022-08-19T14:44:18.224Z,7.90
2022-08-19T14:46:49.335Z,4.15
2022-08-19T14:49:18.959Z,3.45
2022-08-19T14:51:48.019Z,6.32
2022-08-19T14:54:16.244Z,2.47
2022-08-19T14:56:46.615Z,2.65
2022-08-19T14:59:14.935Z,9.27
2022-08-19T15:01:43.569Z,1.75
2022-08-19T15:04:12.105Z,3.55
2022-08-19T15:06:40.733Z,5.82
2022-08-19T15:09:08.937Z,3.70
2022-08-19T15:11:38.055Z,2.58
2022-08-19T15:14:07.959Z,3.08
2022-08-19T15:16:36.496Z,3.38
2022-08-19T15:19:04.749Z,5.38
2022-08-19T15:21:33.527Z,8.10
2022-08-19T15:24:03.409Z,7.28
2022-08-19T15:26:33.409Z,3.50
2022-08-19T15:29:02.083Z,4.18
2022-08-19T15:31:35.446Z,1.75
2022-08-19T15:34:06.902Z,5.35
2022-08-19T15:36:36.136Z,10.65
2022-08-19T15:39:06.416Z,11.18
2022-08-19T15:41:34.942Z,5.53
2022-08-19T15:44:09.581Z,5.25
2022-08-19T15:46:41.663Z,5.20
2022-08-19T15:49:10.882Z,5.65
2022-08-19T15:51:40.711Z,8.82
2022-08-19T15:54:12.129Z,5.30
2022-08-19T15:56:58.681Z,4.80
2022-08-19T15:59:47.415Z,5.53
2022-08-19T16:02:37.199Z,9.27
2022-08-19T16:05:26.879Z,4.93
2022-08-19T16:07:55.781Z,13.85
2022-08-19T16:10:27.867Z,7.70
2022-08-19T16:12:57.774Z,8.43
2022-08-19T16:15:27.423Z,6.28
2022-08-19T16:17:58.065Z,6.35
2022-08-19T16:20:28.928Z,8.48
2022-08-19T16:22:58.776Z,6.97
2022-08-19T16:25:29.099Z,4.47
2022-08-19T16:28:07.064Z,5.68
2022-08-19T16:30:37.885Z,1.35
2022-08-19T16:33:07.872Z,2.17
2022-08-19T16:35:36.484Z,6.07
2022-08-19T16:38:04.750Z,7.63
2022-08-19T16:40:33.141Z,2.83
2022-08-19T16:43:03.192Z,4.05
2022-08-19T16:45:31.710Z,3.17
2022-08-19T16:48:00.026Z,2.63
2022-08-19T16:50:48.157Z,6.88
2022-08-19T16:53:18.570Z,3.13
2022-08-19T16:55:51.330Z,4.20
2022-08-19T16:58:19.916Z,5.15
2022-08-19T17:00:50.322Z,17.05
2022-08-19T17:03:19.739Z,18.67
2022-08-19T17:06:15.973Z,16.13
2022-08-19T17:08:50.170Z,10.32
2022-08-19T17:11:19.608Z,11.18
2022-08-19T17:13:50.786Z,12.82
2022-08-19T17:16:21.969Z,13.55
2022-08-19T17:18:52.319Z,8.35
2022-08-19T17:21:41.688Z,11.75
2022-08-19T17:24:23.555Z,9.55
2022-08-19T17:27:01.920Z,6.75
2022-08-19T17:29:47.364Z,7.90
2022-08-19T17:32:30.836Z,7.63
2022-08-19T17:34:59.040Z,8.50
2022-08-19T17:37:29.638Z,8.27
2022-08-19T17:39:58.071Z,6.25
2022-08-19T17:42:26.398Z,7.15
2022-08-19T17:44:58.554Z,4.25
2022-08-19T17:47:27.412Z,4.00
2022-08-19T17:49:56.762Z,7.35
2022-08-19T17:52:25.739Z,5.93
2022-08-19T17:54:56.213Z,6.18
2022-08-19T17:57:25.034Z,6.72
2022-08-19T17:59:55.490Z,5.45
2022-08-19T18:02:25.175Z,5.43
2022-08-19T18:04:54.330Z,4.13
2022-08-19T18:07:22.874Z,5.90
2022-08-19T18:09:52.619Z,3.97
2022-08-19T18:12:26.883Z,4.75
2022-08-19T18:14:55.723Z,8.48
2022-08-19T18:17:26.032Z,7.00
2022-08-19T18:19:54.860Z,5.82
2022-08-19T18:22:25.594Z,12.52
2022-08-19T18:24:54.771Z,24.13
2022-08-19T18:27:24.837Z,48.72
2022-08-19T18:29:56.686Z,77.25
2022-08-19T18:32:26.323Z,94.15
2022-08-19T18:34:56.233Z,91.25
2022-08-19T18:37:26.811Z,73.75
2022-08-19T18:40:13.219Z,67.10
2022-08-19T18:43:03.357Z,59.90
2022-08-19T18:45:49.287Z,43.65
2022-08-19T18:48:35.416Z,40.10
2022-08-19T18:51:04.064Z,24.98
2022-08-19T18:53:34.047Z,21.30
2022-08-19T18:56:02.743Z,19.25
2022-08-19T18:58:35.071Z,15.93
2022-08-19T19:01:10.765Z,16.52
2022-08-19T19:03:40.584Z,15.15
2022-08-19T19:06:09.555Z,11.73
2022-08-19T19:08:38.840Z,10.70
2022-08-19T19:11:07.582Z,12.95
2022-08-19T19:13:39.816Z,10.50
2022-08-19T19:16:12.462Z,9.48
2022-08-19T19:18:40.924Z,8.63
2022-08-19T19:21:10.496Z,11.68
2022-08-19T19:23:40.831Z,11.98
2022-08-19T19:26:10.525Z,9.40
2022-08-19T19:28:43.669Z,8.98
2022-08-19T19:31:13.901Z,10.82
2022-08-19T19:33:42.733Z,10.07
2022-08-19T19:36:12.288Z,9.93
2022-08-19T19:38:48.607Z,11.75
2022-08-19T19:41:18.855Z,9.32
2022-08-19T19:43:56.637Z,6.38
2022-08-19T19:46:34.072Z,8.02
2022-08-19T19:49:02.876Z,7.25
2022-08-19T19:51:35.597Z,8.13
2022-08-19T19:54:06.744Z,10.30
2022-08-19T19:56:35.484Z,16.67
2022-08-19T19:59:05.355Z,11.93
2022-08-19T20:01:34.092Z,7.88
2022-08-19T20:04:03.095Z,6.68
2022-08-19T20:06:31.877Z,8.88
2022-08-19T20:09:08.291Z,7.95
2022-08-19T20:11:37.807Z,8.27
2022-08-19T20:14:09.567Z,7.75
2022-08-19T20:16:40.886Z,6.57
2022-08-19T20:19:10.129Z,7.07
2022-08-19T20:21:40.116Z,8.80
2022-08-19T20:24:10.310Z,8.25
2022-08-19T20:26:41.568Z,6.40
2022-08-19T20:29:39.448Z,8.38
2022-08-19T20:32:03.544Z,6.68
2022-08-19T20:34:33.785Z,6.80
2022-08-19T20:37:02.300Z,6.75
2022-08-19T20:39:30.807Z,13.02
2022-08-19T20:42:00.915Z,10.77
2022-08-19T20:44:30.827Z,12.88
2022-08-19T20:47:03.854Z,9.13
2022-08-19T20:49:33.016Z,11.02
2022-08-19T20:52:01.621Z,13.50
2022-08-19T20:54:30.815Z,7.45
2022-08-19T20:57:00.520Z,8.40
2022-08-19T20:59:29.046Z,6.80
2022-08-19T21:02:01.220Z,9.00
2022-08-19T21:04:29.934Z,8.48
2022-08-19T21:06:58.378Z,9.15
2022-08-19T21:09:26.855Z,8.05
2022-08-19T21:11:55.382Z,7.55
2022-08-19T21:14:23.936Z,8.70
2022-08-19T21:16:52.410Z,7.25
2022-08-19T21:19:24.175Z,6.85
2022-08-19T21:21:53.604Z,7.00
2022-08-19T21:24:26.335Z,7.60
2022-08-19T21:27:00.559Z,7.32
2022-08-19T21:29:29.080Z,8.18
2022-08-19T21:31:57.577Z,6.93
2022-08-19T21:34:27.472Z,9.13
2022-08-19T21:36:55.955Z,8.32
2022-08-19T21:39:24.428Z,7.13
2022-08-19T21:41:53.122Z,6.85
2022-08-19T21:44:23.145Z,5.70
2022-08-19T21:46:51.643Z,7.30
2022-08-19T21:49:20.465Z,6.43
2022-08-19T21:51:50.366Z,6.55
2022-08-19T21:54:18.902Z,5.80
2022-08-19T21:56:47.467Z,5.45
2022-08-19T21:59:16.910Z,6.63
2022-08-19T22:01:49.656Z,8.32
2022-08-19T22:04:22.632Z,9.95
2022-08-19T22:06:52.490Z,9.63
2022-08-19T22:09:20.963Z,5.25
2022-08-19T22:11:49.589Z,11.30
2022-08-19T22:14:18.075Z,7.95
2022-08-19T22:16:47.327Z,6.30
2022-08-19T22:19:15.907Z,7.60
2022-08-19T22:21:44.383Z,8.30
2022-08-19T22:24:14.322Z,7.50
2022-08-19T22:26:45.407Z,5.85
2022-08-19T22:29:15.674Z,8.68
2022-08-19T22:31:46.098Z,8.60
2022-08-19T22:34:23.271Z,6.22
2022-08-19T22:36:51.726Z,7.28
2022-08-19T22:39:21.578Z,11.23
2022-08-19T22:41:50.386Z,10.23
2022-08-19T22:44:18.831Z,6.07
2022-08-19T22:46:47.264Z,5.40
2022-08-19T22:49:15.786Z,8.57
2022-08-19T22:52:01.622Z,8.35
2022-08-19T22:54:31.635Z,6.93
2022-08-19T22:57:00.188Z,8.48
2022-08-19T22:59:28.698Z,4.47
2022-08-19T23:01:57.264Z,5.05
2022-08-19T23:04:25.760Z,6.15
2022-08-19T23:06:54.240Z,8.52
2022-08-19T23:09:23.320Z,5.85
2022-08-19T23:11:53.893Z,5.05
2022-08-19T23:14:22.410Z,8.45
2022-08-19T23:16:51.722Z,5.00
2022-08-19T23:19:22.193Z,6.07
2022-08-19T23:21:52.628Z,5.60
2022-08-19T23:24:21.187Z,6.55
2022-08-19T23:27:07.521Z,6.93
2022-08-19T23:29:54.937Z,7.53
2022-08-19T23:32:23.637Z,5.63
2022-08-19T23:34:52.099Z,9.13
2022-08-19T23:37:20.554Z,4.85
2022-08-19T23:39:50.130Z,6.55
2022-08-19T23:42:18.648Z,5.45
2022-08-19T23:44:51.219Z,6.97
2022-08-19T23:47:20.974Z,6.80
2022-08-19T23:49:49.714Z,6.97
2022-08-19T23:52:18.185Z,8.88
2022-08-19T23:54:46.730Z,3.78
2022-08-19T23:57:15.259Z,4.03
2022-08-19T23:59:45.421Z,11.25
